createdAt,value
2019-06-08T15:07:47.667Z,22.87
2019-06-08T15:10:49.794Z,22.81
2019-06-08T15:13:51.640Z,22.94
2019-06-08T15:16:54.121Z,22.37
2019-06-08T15:19:55.680Z,22.50
2019-06-08T15:22:57.865Z,22.75
2019-06-08T15:26:02.850Z,23.12
2019-06-08T15:29:04.610Z,22.94
2019-06-08T15:32:08.138Z,22.81
2019-06-08T15:35:09.577Z,22.62
2019-06-08T15:38:10.995Z,22.37
2019-06-08T15:41:12.506Z,22.31
2019-06-08T15:44:14.020Z,22.06
2019-06-08T15:47:18.063Z,22.50
2019-06-08T15:50:19.891Z,22.25
2019-06-08T15:53:22.321Z,22.25
2019-06-08T15:56:38.221Z,22.06
2019-06-08T15:59:30.878Z,22.44
2019-06-08T16:02:32.019Z,22.62
2019-06-08T16:05:33.880Z,22.56
2019-06-08T16:08:38.484Z,22.06
2019-06-08T16:11:40.091Z,22.50
2019-06-08T16:14:43.058Z,22.19
2019-06-08T16:17:44.594Z,21.94
2019-06-08T16:20:49.283Z,22.19
2019-06-08T16:23:50.689Z,22.37
2019-06-08T16:26:53.707Z,22.31
2019-06-08T16:29:55.279Z,22.19
2019-06-08T16:32:57.281Z,22.37
2019-06-08T16:36:00.364Z,22.44
2019-06-08T16:39:02.094Z,22.62
2019-06-08T16:42:05.175Z,22.56
2019-06-08T16:45:07.071Z,22.56
2019-06-08T16:48:08.810Z,22.31
2019-06-08T16:51:10.565Z,22.00
2019-06-08T16:54:14.028Z,21.87
2019-06-08T16:57:15.754Z,22.06
2019-06-08T17:00:30.320Z,22.19
2019-06-08T17:03:21.273Z,22.31
2019-06-08T17:06:22.749Z,22.44
2019-06-08T17:09:24.479Z,22.25
2019-06-08T17:12:25.924Z,22.31
2019-06-08T17:15:31.863Z,22.37
2019-06-08T17:18:34.228Z,22.37
2019-06-08T17:21:36.370Z,22.31
2019-06-08T17:24:38.897Z,22.19
2019-06-08T17:27:40.972Z,22.13
2019-06-08T17:30:42.636Z,22.00
2019-06-08T17:33:44.078Z,21.87
2019-06-08T17:36:45.609Z,21.94
2019-06-08T17:39:47.026Z,21.81
2019-06-08T17:42:48.516Z,21.75
2019-06-08T17:45:49.904Z,21.69
2019-06-08T17:48:51.382Z,21.69
2019-06-08T17:51:52.834Z,21.69
2019-06-08T17:54:54.388Z,21.69
2019-06-08T17:57:55.802Z,21.56
2019-06-08T18:00:57.258Z,21.50
2019-06-08T18:03:58.931Z,21.19
2019-06-08T18:07:00.462Z,21.12
2019-06-08T18:10:01.841Z,21.00
2019-06-08T18:13:03.331Z,20.81
2019-06-08T18:16:05.066Z,20.69
2019-06-08T18:19:08.092Z,20.50
2019-06-08T18:22:15.355Z,20.37
2019-06-08T18:25:13.400Z,20.31
2019-06-08T18:28:17.066Z,20.25
2019-06-08T18:31:18.273Z,20.19
2019-06-08T18:34:19.758Z,20.19
2019-06-08T18:37:21.211Z,20.19
2019-06-08T18:40:22.905Z,20.06
2019-06-08T18:43:27.984Z,19.94
2019-06-08T18:46:30.485Z,19.94
2019-06-08T18:49:32.064Z,19.81
2019-06-08T18:52:33.777Z,19.69
2019-06-08T18:55:36.309Z,19.31
2019-06-08T18:58:39.659Z,19.37
2019-06-08T19:01:42.141Z,19.12
2019-06-08T19:04:45.625Z,19.00
2019-06-08T19:07:50.252Z,19.00
2019-06-08T19:10:51.181Z,18.94
2019-06-08T19:13:54.275Z,18.75
2019-06-08T19:16:58.091Z,18.44
2019-06-08T19:19:59.081Z,18.44
2019-06-08T19:23:00.950Z,18.56
2019-06-08T19:26:03.416Z,18.37
2019-06-08T19:29:07.586Z,18.44
2019-06-08T19:32:08.421Z,18.25
2019-06-08T19:35:10.222Z,17.81
2019-06-08T19:38:11.792Z,17.69
2019-06-08T19:41:13.367Z,17.50
2019-06-08T19:44:14.824Z,17.56
2019-06-08T19:47:17.641Z,17.62
2019-06-08T19:50:19.824Z,17.50
2019-06-08T19:53:21.489Z,17.56
2019-06-08T19:56:22.905Z,17.31
2019-06-08T19:59:24.401Z,17.25
2019-06-08T20:02:27.159Z,17.00
2019-06-08T20:05:29.001Z,17.06
2019-06-08T20:08:30.451Z,17.00
2019-06-08T20:11:32.115Z,16.69
2019-06-08T20:14:33.586Z,16.94
2019-06-08T20:17:37.155Z,16.75
2019-06-08T20:20:38.277Z,16.69
2019-06-08T20:23:41.045Z,16.56
2019-06-08T20:26:42.653Z,16.56
2019-06-08T20:29:45.110Z,16.56
2019-06-08T20:32:50.799Z,16.75
2019-06-08T20:35:51.925Z,16.81
2019-06-08T20:38:53.485Z,16.56
2019-06-08T20:41:54.895Z,16.37
2019-06-08T20:44:57.786Z,16.37
2019-06-08T20:47:59.355Z,16.19
2019-06-08T20:51:00.774Z,16.31
2019-06-08T20:54:02.207Z,16.19
2019-06-08T20:57:03.630Z,16.19
2019-06-08T21:00:09.202Z,15.94
2019-06-08T21:03:09.932Z,15.88
2019-06-08T21:06:11.397Z,15.88
2019-06-08T21:09:12.815Z,16.06
2019-06-08T21:12:14.296Z,16.12
2019-06-08T21:15:17.779Z,15.94
2019-06-08T21:18:19.316Z,15.75
2019-06-08T21:21:21.241Z,15.75
2019-06-08T21:24:23.021Z,15.88
2019-06-08T21:27:24.510Z,15.88
2019-06-08T21:30:28.491Z,15.75
2019-06-08T21:33:29.205Z,15.88
2019-06-08T21:36:30.674Z,15.81
2019-06-08T21:39:36.059Z,15.81
2019-06-08T21:42:37.193Z,16.06
2019-06-08T21:45:39.784Z,15.88
2019-06-08T21:48:41.276Z,15.88
2019-06-08T21:51:43.563Z,15.81
2019-06-08T21:54:45.003Z,15.94
2019-06-08T21:57:49.489Z,15.94
2019-06-08T22:00:52.703Z,15.88
2019-06-08T22:03:56.553Z,15.75
2019-06-08T22:06:59.651Z,15.88
2019-06-08T22:10:02.789Z,16.00
2019-06-08T22:13:08.061Z,15.75
2019-06-08T22:16:08.828Z,15.56
2019-06-08T22:19:10.377Z,15.69
2019-06-08T22:22:12.803Z,15.75
2019-06-08T22:25:45.065Z,15.81
2019-06-08T22:28:17.808Z,15.88
2019-06-08T22:31:19.268Z,15.88
2019-06-08T22:34:20.720Z,15.81
2019-06-08T22:37:22.847Z,15.69
2019-06-08T22:40:24.281Z,15.56
2019-06-08T22:43:25.805Z,15.63
2019-06-08T22:46:27.237Z,15.69
2019-06-08T22:49:28.654Z,15.56
2019-06-08T22:52:30.089Z,15.50
2019-06-08T22:55:31.560Z,15.56
2019-06-08T22:58:34.065Z,15.38
2019-06-08T23:01:37.711Z,15.44
2019-06-08T23:04:38.609Z,15.50
2019-06-08T23:07:40.043Z,15.56
2019-06-08T23:10:41.492Z,15.50
2019-06-08T23:13:42.923Z,15.50
2019-06-08T23:16:44.371Z,15.38
2019-06-08T23:19:48.054Z,15.31
2019-06-08T23:22:48.978Z,15.31
2019-06-08T23:25:50.411Z,15.31
2019-06-08T23:28:51.812Z,14.94
2019-06-08T23:31:53.303Z,14.75
2019-06-08T23:34:54.680Z,14.38
2019-06-08T23:37:56.806Z,14.56
2019-06-08T23:41:00.775Z,14.44
2019-06-08T23:44:01.509Z,14.38
2019-06-08T23:47:04.375Z,14.38
2019-06-08T23:50:10.048Z,14.38
2019-06-08T23:53:10.975Z,14.31
2019-06-08T23:56:12.422Z,14.19
2019-06-08T23:59:13.830Z,14.25
